createdAt,value
2023-04-06T00:00:27.895Z,10.18
2023-04-06T00:03:31.930Z,6.82
2023-04-06T00:06:35.827Z,5.45
2023-04-06T00:09:39.203Z,9.33
2023-04-06T00:12:42.923Z,6.20
2023-04-06T00:15:46.382Z,8.68
2023-04-06T00:18:49.863Z,9.68
2023-04-06T00:21:53.575Z,9.65
2023-04-06T00:24:57.023Z,7.22
2023-04-06T00:28:00.504Z,7.55
2023-04-06T00:31:04.030Z,7.80
2023-04-06T00:34:07.852Z,9.32
2023-04-06T00:37:12.497Z,8.18
2023-04-06T00:40:16.513Z,8.30
2023-04-06T00:43:20.024Z,9.52
2023-04-06T00:46:24.057Z,9.60
2023-04-06T00:49:28.215Z,8.35
2023-04-06T00:52:31.850Z,7.47
2023-04-06T00:55:37.039Z,8.15
2023-04-06T00:58:41.749Z,9.10
2023-04-06T01:01:46.488Z,7.80
2023-04-06T01:05:05.903Z,7.57
2023-04-06T01:08:21.310Z,11.45
2023-04-06T01:11:27.353Z,8.02
2023-04-06T01:14:31.301Z,10.27
2023-04-06T01:17:37.148Z,7.25
2023-04-06T01:20:47.382Z,11.02
2023-04-06T01:23:53.016Z,12.07
2023-04-06T01:27:03.991Z,8.60
2023-04-06T01:30:20.796Z,11.95
2023-04-06T01:33:37.629Z,11.23
2023-04-06T01:36:44.526Z,8.50
2023-04-06T01:40:00.535Z,8.93
2023-04-06T01:43:16.978Z,9.45
2023-04-06T01:46:38.908Z,9.10
2023-04-06T01:49:44.225Z,6.63
2023-04-06T01:52:47.780Z,7.45
2023-04-06T01:55:51.958Z,6.18
2023-04-06T01:59:03.298Z,7.87
2023-04-06T02:02:14.182Z,8.57
2023-04-06T02:05:23.138Z,7.68
2023-04-06T02:08:28.934Z,8.15
2023-04-06T02:11:32.538Z,6.13
2023-04-06T02:14:36.004Z,9.93
2023-04-06T02:17:39.514Z,8.30
2023-04-06T02:20:43.360Z,7.50
2023-04-06T02:23:48.260Z,8.10
2023-04-06T02:26:51.859Z,7.43
2023-04-06T02:29:55.348Z,8.02
2023-04-06T02:32:58.854Z,7.57
2023-04-06T02:36:02.462Z,9.23
2023-04-06T02:39:06.761Z,8.15
2023-04-06T02:42:11.320Z,7.75
2023-04-06T02:45:15.096Z,6.32
2023-04-06T02:48:21.809Z,6.97
2023-04-06T02:51:25.199Z,7.07
2023-04-06T02:54:32.225Z,6.78
2023-04-06T02:57:36.878Z,7.72
2023-04-06T03:00:40.669Z,8.85
2023-04-06T03:03:44.459Z,9.57
2023-04-06T03:06:56.891Z,8.98
2023-04-06T03:10:11.851Z,7.07
2023-04-06T03:13:15.482Z,9.63
2023-04-06T03:16:30.779Z,10.35
2023-04-06T03:19:35.391Z,9.38
2023-04-06T03:22:39.690Z,8.27
2023-04-06T03:25:45.537Z,10.35
2023-04-06T03:28:53.144Z,9.98
2023-04-06T03:32:00.884Z,8.68
2023-04-06T03:35:14.672Z,7.83
2023-04-06T03:38:18.152Z,8.20
2023-04-06T03:41:22.048Z,10.80
2023-04-06T03:44:33.478Z,8.85
2023-04-06T03:47:36.938Z,10.13
2023-04-06T03:50:43.060Z,8.45
2023-04-06T03:53:46.791Z,9.85
2023-04-06T03:56:50.453Z,10.73
2023-04-06T03:59:53.921Z,9.88
2023-04-06T04:02:57.503Z,9.70
2023-04-06T04:06:01.106Z,9.93
2023-04-06T04:09:04.817Z,8.77
2023-04-06T04:12:08.489Z,9.15
2023-04-06T04:15:12.212Z,9.85
2023-04-06T04:18:15.978Z,8.80
2023-04-06T04:21:19.413Z,9.98
2023-04-06T04:24:23.109Z,8.18
2023-04-06T04:27:27.360Z,8.97
2023-04-06T04:30:30.917Z,8.70
2023-04-06T04:33:34.494Z,13.38
2023-04-06T04:36:43.044Z,9.77
2023-04-06T04:39:51.250Z,9.65
2023-04-06T04:42:54.824Z,8.98
2023-04-06T04:46:08.066Z,10.27
2023-04-06T04:49:17.686Z,9.87
2023-04-06T04:52:21.525Z,11.27
2023-04-06T04:55:45.223Z,9.52
2023-04-06T04:58:50.619Z,9.77
2023-04-06T05:01:55.560Z,9.07
2023-04-06T05:05:06.301Z,14.98
2023-04-06T05:08:10.069Z,11.02
2023-04-06T05:11:22.886Z,13.52
2023-04-06T05:14:33.093Z,13.88
2023-04-06T05:17:39.796Z,13.30
2023-04-06T05:20:44.861Z,13.07
2023-04-06T05:23:48.834Z,12.02
2023-04-06T05:26:52.844Z,10.60
2023-04-06T05:30:00.178Z,10.67
2023-04-06T05:33:06.364Z,13.90
2023-04-06T05:36:23.250Z,12.18
2023-04-06T05:39:27.378Z,12.55
2023-04-06T05:42:42.247Z,16.80
2023-04-06T05:45:46.817Z,12.02
2023-04-06T05:48:50.452Z,15.23
2023-04-06T05:51:56.865Z,12.93
2023-04-06T05:55:00.997Z,14.13
2023-04-06T05:58:04.677Z,17.40
2023-04-06T06:01:08.105Z,12.50
2023-04-06T06:04:16.596Z,11.25
2023-04-06T06:07:21.422Z,14.40
2023-04-06T06:10:34.648Z,11.68
2023-04-06T06:13:38.148Z,10.38
2023-04-06T06:16:42.497Z,6.63
2023-04-06T06:19:49.381Z,15.13
2023-04-06T06:22:53.805Z,8.37
2023-04-06T06:25:59.520Z,11.90
2023-04-06T06:29:06.540Z,10.02
2023-04-06T06:32:12.652Z,11.13
2023-04-06T06:35:17.648Z,11.10
2023-04-06T06:38:23.509Z,12.80
2023-04-06T06:41:28.068Z,10.55
2023-04-06T06:44:31.976Z,10.07
2023-04-06T06:47:35.466Z,10.25
2023-04-06T06:50:38.969Z,12.15
2023-04-06T06:53:42.800Z,10.60
2023-04-06T06:56:47.012Z,23.20
2023-04-06T06:59:50.665Z,10.50
2023-04-06T07:02:56.026Z,11.63
2023-04-06T07:06:00.759Z,12.35
2023-04-06T07:09:04.551Z,11.40
2023-04-06T07:12:08.135Z,11.52
2023-04-06T07:15:12.118Z,9.80
2023-04-06T07:18:15.603Z,13.27
2023-04-06T07:21:19.176Z,11.10
2023-04-06T07:24:22.722Z,11.47
2023-04-06T07:27:26.245Z,12.20
2023-04-06T07:30:31.674Z,12.23
2023-04-06T07:33:36.736Z,11.35
2023-04-06T07:36:40.341Z,11.18
2023-04-06T07:39:44.348Z,11.80
2023-04-06T07:42:48.448Z,17.17
2023-04-06T07:45:52.208Z,14.23
2023-04-06T07:48:58.900Z,10.52
2023-04-06T07:52:04.005Z,15.05
2023-04-06T07:55:08.328Z,10.85
2023-04-06T07:58:11.931Z,12.27
2023-04-06T08:01:15.661Z,9.63
2023-04-06T08:04:19.145Z,12.50
2023-04-06T08:07:23.025Z,14.52
2023-04-06T08:10:26.525Z,11.48
2023-04-06T08:13:30.314Z,11.75
2023-04-06T08:16:33.756Z,10.57
2023-04-06T08:19:38.489Z,13.33
2023-04-06T08:22:42.038Z,13.52
2023-04-06T08:25:45.999Z,9.82
2023-04-06T08:28:49.569Z,13.23
2023-04-06T08:31:53.080Z,11.55
2023-04-06T08:34:56.734Z,10.93
2023-04-06T08:38:00.277Z,10.23
2023-04-06T08:41:12.559Z,12.30
2023-04-06T08:44:16.101Z,12.20
2023-04-06T08:47:22.377Z,10.93
2023-04-06T08:50:29.234Z,9.68
2023-04-06T08:53:32.977Z,10.10
2023-04-06T08:56:39.768Z,12.90
2023-04-06T08:59:44.067Z,10.35
2023-04-06T09:02:50.360Z,11.37
2023-04-06T09:05:54.496Z,12.32
2023-04-06T09:08:59.151Z,10.90
2023-04-06T09:12:06.942Z,13.48
2023-04-06T09:15:22.924Z,13.13
2023-04-06T09:18:32.399Z,9.48
2023-04-06T09:21:37.059Z,11.18
2023-04-06T09:24:48.722Z,11.50
2023-04-06T09:28:04.773Z,14.50
2023-04-06T09:31:08.421Z,12.43
2023-04-06T09:34:23.990Z,9.82
2023-04-06T09:37:29.900Z,13.15
2023-04-06T09:40:33.456Z,9.48
2023-04-06T09:43:36.983Z,12.93
2023-04-06T09:46:57.948Z,10.90
2023-04-06T09:50:04.400Z,10.73
2023-04-06T09:53:09.065Z,13.40
2023-04-06T09:56:18.073Z,12.73
2023-04-06T09:59:30.790Z,8.63
2023-04-06T10:02:42.465Z,13.48
2023-04-06T10:06:02.281Z,13.55
2023-04-06T10:09:09.328Z,11.50
2023-04-06T10:12:13.886Z,13.83
2023-04-06T10:15:20.322Z,13.15
2023-04-06T10:18:26.224Z,10.18
2023-04-06T10:21:32.220Z,13.98
2023-04-06T10:24:36.908Z,13.80
2023-04-06T10:27:40.613Z,13.15
2023-04-06T10:30:44.951Z,15.15
2023-04-06T10:34:02.808Z,11.80
2023-04-06T10:37:20.154Z,11.13
2023-04-06T10:40:28.269Z,12.32
2023-04-06T10:43:38.652Z,12.90
2023-04-06T10:46:53.108Z,11.57
2023-04-06T10:49:56.690Z,13.20
2023-04-06T10:53:02.375Z,12.68
2023-04-06T10:56:10.312Z,12.68
2023-04-06T10:59:14.240Z,12.05
2023-04-06T11:02:23.971Z,15.90
2023-04-06T11:05:27.542Z,15.35
2023-04-06T11:08:33.508Z,12.93
2023-04-06T11:11:41.199Z,12.45
2023-04-06T11:15:05.525Z,14.40
2023-04-06T11:18:09.125Z,12.98
2023-04-06T11:21:16.087Z,11.25
2023-04-06T11:24:21.337Z,11.98
2023-04-06T11:27:26.615Z,15.32
2023-04-06T11:30:30.136Z,11.93
2023-04-06T11:33:40.986Z,10.93
2023-04-06T11:36:45.878Z,15.13
2023-04-06T11:39:51.934Z,15.38
2023-04-06T11:42:58.983Z,13.67
2023-04-06T11:46:04.536Z,9.73
2023-04-06T11:49:08.057Z,14.18
2023-04-06T11:52:19.688Z,10.80
2023-04-06T11:55:23.145Z,14.15
2023-04-06T11:58:27.786Z,12.37
2023-04-06T12:01:34.196Z,12.65
2023-04-06T12:04:40.750Z,10.35
2023-04-06T12:07:44.446Z,10.52
2023-04-06T12:10:47.905Z,12.63
2023-04-06T12:13:51.607Z,15.05
2023-04-06T12:16:54.977Z,11.48
2023-04-06T12:20:05.244Z,10.75
2023-04-06T12:23:09.375Z,11.40
2023-04-06T12:26:13.039Z,11.40
2023-04-06T12:29:16.993Z,10.18
2023-04-06T12:32:20.752Z,10.50
2023-04-06T12:35:24.161Z,13.13
2023-04-06T12:38:28.200Z,11.10
2023-04-06T12:41:31.921Z,11.18
2023-04-06T12:44:35.632Z,8.93
2023-04-06T12:47:39.564Z,11.73
2023-04-06T12:50:43.033Z,11.15
2023-04-06T12:53:46.542Z,11.63
2023-04-06T12:56:49.937Z,10.15
2023-04-06T12:59:54.021Z,13.00
2023-04-06T13:02:57.743Z,10.52
2023-04-06T13:06:02.549Z,11.30
2023-04-06T13:09:06.699Z,12.23
2023-04-06T13:12:10.137Z,10.00
2023-04-06T13:15:13.717Z,10.43
2023-04-06T13:18:17.240Z,8.77
2023-04-06T13:21:21.963Z,9.30
2023-04-06T13:24:25.953Z,11.03
2023-04-06T13:27:29.467Z,11.27
2023-04-06T13:30:32.973Z,10.20
2023-04-06T13:33:36.696Z,7.97
2023-04-06T13:36:42.463Z,6.20
2023-04-06T13:39:46.122Z,7.93
2023-04-06T13:42:49.979Z,11.48
2023-04-06T13:45:59.211Z,8.70
2023-04-06T13:49:02.816Z,11.00
2023-04-06T13:52:06.468Z,11.15
2023-04-06T13:55:10.456Z,9.87
2023-04-06T13:58:13.944Z,10.02
2023-04-06T14:01:17.409Z,12.00
2023-04-06T14:04:20.904Z,16.10
2023-04-06T14:07:24.760Z,11.93
2023-04-06T14:10:29.183Z,12.60
2023-04-06T14:13:32.840Z,10.30
2023-04-06T14:16:36.507Z,11.73
2023-04-06T14:19:39.996Z,9.25
2023-04-06T14:22:44.198Z,12.13
2023-04-06T14:25:47.928Z,11.83
2023-04-06T14:28:51.652Z,12.60
2023-04-06T14:32:00.784Z,7.60
2023-04-06T14:35:05.851Z,9.25
2023-04-06T14:38:10.772Z,10.52
2023-04-06T14:41:21.363Z,11.10
2023-04-06T14:44:24.758Z,13.02
2023-04-06T14:47:28.271Z,11.30
2023-04-06T14:50:34.342Z,9.68
2023-04-06T14:53:37.798Z,13.50
2023-04-06T14:56:41.459Z,10.85
2023-04-06T14:59:44.990Z,11.75
2023-04-06T15:02:48.804Z,9.30
2023-04-06T15:05:52.983Z,11.02
2023-04-06T15:08:56.363Z,12.88
2023-04-06T15:11:59.900Z,10.63
2023-04-06T15:15:03.648Z,11.18
2023-04-06T15:18:08.194Z,13.57
2023-04-06T15:21:11.654Z,12.15
2023-04-06T15:24:15.252Z,13.27
2023-04-06T15:27:18.646Z,16.40
2023-04-06T15:30:22.657Z,19.93
2023-04-06T15:33:26.414Z,19.90
2023-04-06T15:36:31.133Z,16.77
2023-04-06T15:39:34.770Z,16.55
2023-04-06T15:42:38.349Z,12.90
2023-04-06T15:45:42.221Z,17.77
2023-04-06T15:48:46.089Z,13.80
2023-04-06T15:51:51.714Z,12.13
2023-04-06T15:54:55.817Z,18.40
2023-04-06T15:57:59.237Z,14.32
2023-04-06T16:01:12.982Z,8.80
2023-04-06T16:04:16.498Z,9.80
2023-04-06T16:07:19.954Z,12.07
2023-04-06T16:10:23.821Z,10.65
2023-04-06T16:13:27.271Z,12.23
2023-04-06T16:16:30.684Z,13.70
2023-04-06T16:19:34.216Z,11.60
2023-04-06T16:22:37.607Z,15.98
2023-04-06T16:25:42.192Z,18.10
2023-04-06T16:28:47.518Z,13.90
2023-04-06T16:31:50.967Z,13.15
2023-04-06T16:34:54.531Z,15.63
2023-04-06T16:37:57.883Z,17.50
2023-04-06T16:41:02.441Z,16.77
2023-04-06T16:44:05.829Z,14.07
2023-04-06T16:47:09.524Z,13.82
2023-04-06T16:50:12.865Z,16.33
2023-04-06T16:53:17.218Z,11.98
2023-04-06T16:56:21.132Z,11.63
2023-04-06T16:59:24.766Z,13.20
2023-04-06T17:02:38.675Z,11.90
2023-04-06T17:05:42.218Z,11.55
2023-04-06T17:08:47.426Z,14.65
2023-04-06T17:11:51.048Z,15.67
2023-04-06T17:14:54.601Z,12.70
2023-04-06T17:17:58.349Z,12.23
2023-04-06T17:21:14.661Z,12.98
2023-04-06T17:24:18.187Z,12.70
2023-04-06T17:27:23.641Z,12.93
2023-04-06T17:30:27.567Z,13.98
2023-04-06T17:33:32.590Z,14.23
2023-04-06T17:36:35.943Z,10.60
2023-04-06T17:39:39.344Z,17.13
2023-04-06T17:42:42.908Z,13.38
2023-04-06T17:45:51.119Z,12.57
2023-04-06T17:48:54.647Z,17.25
2023-04-06T17:51:58.155Z,15.60
2023-04-06T17:55:01.626Z,14.15
2023-04-06T17:58:05.592Z,15.83
2023-04-06T18:01:13.077Z,14.55
2023-04-06T18:04:16.553Z,16.38
2023-04-06T18:07:20.088Z,17.08
2023-04-06T18:10:23.976Z,17.43
2023-04-06T18:13:27.671Z,17.15
2023-04-06T18:16:31.314Z,14.95
2023-04-06T18:19:34.741Z,17.55
2023-04-06T18:22:38.120Z,15.63
2023-04-06T18:25:41.774Z,19.05
2023-04-06T18:28:45.995Z,18.10
2023-04-06T18:31:50.633Z,17.70
2023-04-06T18:34:57.526Z,14.90
2023-04-06T18:38:01.148Z,13.15
2023-04-06T18:41:04.740Z,12.98
2023-04-06T18:44:08.621Z,22.58
2023-04-06T18:47:12.223Z,27.37
2023-04-06T18:50:15.921Z,16.58
2023-04-06T18:53:19.365Z,17.35
2023-04-06T18:56:22.689Z,15.63
2023-04-06T18:59:30.265Z,17.87
2023-04-06T19:02:34.211Z,14.57
2023-04-06T19:05:40.105Z,21.52
2023-04-06T19:08:43.532Z,16.67
2023-04-06T19:11:47.077Z,19.93
2023-04-06T19:14:52.133Z,18.00
2023-04-06T19:17:55.594Z,16.63
2023-04-06T19:20:59.144Z,14.45
2023-04-06T19:24:03.005Z,16.40
2023-04-06T19:27:06.572Z,14.63
2023-04-06T19:30:10.504Z,18.48
2023-04-06T19:33:16.491Z,14.82
2023-04-06T19:36:19.953Z,33.30
2023-04-06T19:39:23.533Z,34.47
2023-04-06T19:42:27.116Z,28.83
2023-04-06T19:45:30.650Z,26.90
2023-04-06T19:48:34.202Z,26.50
2023-04-06T19:51:37.753Z,31.08
2023-04-06T19:54:41.429Z,25.92
2023-04-06T19:57:44.844Z,22.87
2023-04-06T20:00:48.644Z,25.38
2023-04-06T20:03:52.489Z,28.33
2023-04-06T20:06:55.975Z,30.70
2023-04-06T20:10:02.191Z,29.57
2023-04-06T20:13:06.071Z,17.83
2023-04-06T20:16:09.512Z,26.20
2023-04-06T20:19:12.931Z,17.67
2023-04-06T20:22:16.530Z,17.87
2023-04-06T20:25:20.144Z,19.95
2023-04-06T20:28:24.322Z,18.52
2023-04-06T20:31:28.512Z,19.95
2023-04-06T20:34:32.198Z,19.07
2023-04-06T20:37:39.267Z,20.95
2023-04-06T20:40:47.083Z,22.58
2023-04-06T20:43:50.465Z,18.80
2023-04-06T20:46:54.458Z,18.07
2023-04-06T20:49:58.576Z,21.00
2023-04-06T20:53:02.109Z,19.50
2023-04-06T20:56:05.680Z,19.60
2023-04-06T20:59:09.120Z,22.80
2023-04-06T21:02:13.024Z,17.20
2023-04-06T21:05:16.733Z,26.42
2023-04-06T21:08:20.122Z,31.00
2023-04-06T21:11:23.476Z,43.35
2023-04-06T21:14:27.942Z,26.02
2023-04-06T21:17:31.318Z,41.30
2023-04-06T21:20:35.237Z,32.95
2023-04-06T21:23:39.268Z,33.53
2023-04-06T21:26:42.687Z,20.92
2023-04-06T21:29:46.113Z,30.97
2023-04-06T21:32:49.466Z,40.15
2023-04-06T21:35:53.750Z,35.05
2023-04-06T21:38:57.113Z,35.55
2023-04-06T21:42:00.452Z,32.70
2023-04-06T21:45:04.132Z,38.15
2023-04-06T21:48:08.214Z,32.88
2023-04-06T21:51:21.042Z,34.60
2023-04-06T21:54:24.504Z,30.33
2023-04-06T21:57:27.931Z,27.90
2023-04-06T22:00:32.020Z,27.58
2023-04-06T22:03:35.438Z,28.25
2023-04-06T22:06:38.888Z,26.15
2023-04-06T22:09:43.045Z,21.55
2023-04-06T22:12:46.506Z,18.95
2023-04-06T22:15:49.891Z,22.67
2023-04-06T22:18:53.394Z,20.67
2023-04-06T22:21:57.296Z,19.45
2023-04-06T22:25:01.287Z,21.35
2023-04-06T22:28:07.669Z,23.77
2023-04-06T22:31:11.181Z,22.88
2023-04-06T22:34:14.635Z,23.83
2023-04-06T22:37:18.169Z,21.58
2023-04-06T22:40:21.660Z,23.17
2023-04-06T22:43:24.996Z,22.00
2023-04-06T22:46:28.341Z,23.90
2023-04-06T22:49:31.730Z,20.95
2023-04-06T22:52:35.086Z,18.47
2023-04-06T22:55:41.757Z,21.50
2023-04-06T22:58:45.224Z,20.63
2023-04-06T23:01:48.735Z,22.83
2023-04-06T23:04:52.145Z,21.10
2023-04-06T23:07:55.489Z,20.95
2023-04-06T23:10:59.004Z,20.35
2023-04-06T23:14:02.516Z,19.42
2023-04-06T23:17:06.178Z,19.10
2023-04-06T23:20:09.785Z,20.67
2023-04-06T23:23:13.284Z,22.17
2023-04-06T23:26:17.173Z,19.73
2023-04-06T23:29:20.803Z,22.40
2023-04-06T23:32:24.245Z,22.92
2023-04-06T23:35:27.849Z,20.60
2023-04-06T23:38:31.354Z,20.23
2023-04-06T23:41:35.661Z,21.60
2023-04-06T23:44:39.058Z,21.17
2023-04-06T23:47:42.619Z,20.88
2023-04-06T23:50:46.507Z,19.88
2023-04-06T23:53:49.905Z,18.10
2023-04-06T23:56:53.298Z,16.95
